createdAt,value
2023-05-19T00:01:51.129Z,2.47
2023-05-19T00:04:18.905Z,2.58
2023-05-19T00:06:50.849Z,1.75
2023-05-19T00:09:18.164Z,2.13
2023-05-19T00:11:45.482Z,1.80
2023-05-19T00:14:12.581Z,2.00
2023-05-19T00:16:40.043Z,1.90
2023-05-19T00:19:06.997Z,2.33
2023-05-19T00:21:33.850Z,2.13
2023-05-19T00:24:01.981Z,2.65
2023-05-19T00:26:28.806Z,1.77
2023-05-19T00:28:55.962Z,1.90
2023-05-19T00:31:22.863Z,2.20
2023-05-19T00:33:49.682Z,2.05
2023-05-19T00:36:16.475Z,2.65
2023-05-19T00:38:43.270Z,2.05
2023-05-19T00:41:11.534Z,2.38
2023-05-19T00:43:38.353Z,2.17
2023-05-19T00:46:05.186Z,2.13
2023-05-19T00:48:31.986Z,2.10
2023-05-19T00:51:00.397Z,2.20
2023-05-19T00:53:27.367Z,2.55
2023-05-19T00:55:54.248Z,3.20
2023-05-19T00:58:22.581Z,2.22
2023-05-19T01:00:49.963Z,2.35
2023-05-19T01:03:17.060Z,2.00
2023-05-19T01:05:43.852Z,2.60
2023-05-19T01:08:10.721Z,2.05
2023-05-19T01:10:37.826Z,2.05
2023-05-19T01:13:05.540Z,2.42
2023-05-19T01:15:44.752Z,2.55
2023-05-19T01:18:14.249Z,2.88
2023-05-19T01:20:44.804Z,2.10
2023-05-19T01:23:37.234Z,2.15
2023-05-19T01:26:22.838Z,2.60
2023-05-19T01:29:21.310Z,2.22
2023-05-19T01:31:50.003Z,2.50
2023-05-19T01:34:17.455Z,2.08
2023-05-19T01:36:46.369Z,2.30
2023-05-19T01:39:14.103Z,2.60
2023-05-19T01:41:42.015Z,2.47
2023-05-19T01:44:09.703Z,2.70
2023-05-19T01:46:37.415Z,2.45
2023-05-19T01:49:06.325Z,2.50
2023-05-19T01:51:33.064Z,2.47
2023-05-19T01:53:59.967Z,2.55
2023-05-19T01:56:38.129Z,1.92
2023-05-19T01:59:16.569Z,2.28
2023-05-19T02:01:51.488Z,2.08
2023-05-19T02:04:28.447Z,2.33
2023-05-19T02:07:03.427Z,1.90
2023-05-19T02:09:38.440Z,2.20
2023-05-19T02:12:11.462Z,2.28
2023-05-19T02:14:44.407Z,2.22
2023-05-19T02:17:14.465Z,2.50
2023-05-19T02:19:43.671Z,2.20
2023-05-19T02:22:10.451Z,3.45
2023-05-19T02:24:37.216Z,2.47
2023-05-19T02:29:55.957Z,2.47
2023-05-19T02:32:22.724Z,2.20
2023-05-19T02:34:50.851Z,2.25
2023-05-19T02:37:17.647Z,2.35
2023-05-19T02:39:44.942Z,2.92
2023-05-19T02:42:11.687Z,2.10
2023-05-19T02:44:38.444Z,2.25
2023-05-19T02:47:05.308Z,2.80
2023-05-19T02:49:32.408Z,2.33
2023-05-19T02:52:00.551Z,2.50
2023-05-19T02:54:27.348Z,2.08
2023-05-19T02:56:54.263Z,2.22
2023-05-19T02:59:21.049Z,2.38
2023-05-19T03:01:49.011Z,1.98
2023-05-19T03:04:15.825Z,2.17
2023-05-19T03:06:42.575Z,2.00
2023-05-19T03:09:10.676Z,1.90
2023-05-19T03:11:37.430Z,2.40
2023-05-19T03:14:04.189Z,2.35
2023-05-19T03:16:30.991Z,2.28
2023-05-19T03:18:57.844Z,2.35
2023-05-19T03:21:24.671Z,2.38
2023-05-19T03:23:51.459Z,2.20
2023-05-19T03:26:19.677Z,2.50
2023-05-19T03:28:46.486Z,2.38
2023-05-19T03:31:13.357Z,2.38
2023-05-19T03:33:40.119Z,2.40
2023-05-19T03:36:07.688Z,2.72
2023-05-19T03:38:34.521Z,2.15
2023-05-19T03:41:01.330Z,1.88
2023-05-19T03:43:29.477Z,2.40
2023-05-19T03:45:56.743Z,2.35
2023-05-19T03:48:23.805Z,2.20
2023-05-19T03:50:50.561Z,2.28
2023-05-19T03:53:17.345Z,2.05
2023-05-19T03:55:44.184Z,2.30
2023-05-19T03:58:11.000Z,1.98
2023-05-19T04:00:39.105Z,2.10
2023-05-19T04:03:05.950Z,2.33
2023-05-19T04:05:34.014Z,2.47
2023-05-19T04:08:00.808Z,2.25
2023-05-19T04:10:27.720Z,2.42
2023-05-19T04:12:54.497Z,2.58
2023-05-19T04:15:21.291Z,2.53
2023-05-19T04:17:49.426Z,2.38
2023-05-19T04:20:16.219Z,2.58
2023-05-19T04:22:42.964Z,2.25
2023-05-19T04:25:10.104Z,2.95
2023-05-19T04:27:36.879Z,2.63
2023-05-19T04:30:03.998Z,3.03
2023-05-19T04:32:30.778Z,2.88
2023-05-19T04:34:59.098Z,3.60
2023-05-19T04:37:25.912Z,2.70
2023-05-19T04:39:52.780Z,2.63
2023-05-19T04:42:19.773Z,2.55
2023-05-19T04:44:46.988Z,2.60
2023-05-19T04:47:13.786Z,2.53
2023-05-19T04:49:40.837Z,3.13
2023-05-19T04:52:10.159Z,2.60
2023-05-19T04:54:37.495Z,2.67
2023-05-19T04:57:04.728Z,2.63
2023-05-19T04:59:31.894Z,3.38
2023-05-19T05:01:58.727Z,2.70
2023-05-19T05:04:25.600Z,3.30
2023-05-19T05:06:52.421Z,3.30
2023-05-19T05:09:20.520Z,3.35
2023-05-19T05:11:47.781Z,3.25
2023-05-19T05:14:15.030Z,3.35
2023-05-19T05:16:42.727Z,3.70
2023-05-19T05:19:10.178Z,3.40
2023-05-19T05:21:37.528Z,2.95
2023-05-19T05:24:05.053Z,3.00
2023-05-19T05:26:34.989Z,3.30
2023-05-19T05:29:01.955Z,3.25
2023-05-19T05:31:28.763Z,3.67
2023-05-19T05:33:55.729Z,3.58
2023-05-19T05:36:22.546Z,3.65
2023-05-19T05:38:49.351Z,3.58
2023-05-19T05:41:16.130Z,3.58
2023-05-19T05:43:44.393Z,3.30
2023-05-19T05:46:11.175Z,3.40
2023-05-19T05:48:38.477Z,3.63
2023-05-19T05:51:06.321Z,4.10
2023-05-19T05:53:37.003Z,4.63
2023-05-19T05:56:04.463Z,4.40
2023-05-19T05:58:31.234Z,3.70
2023-05-19T06:00:59.393Z,4.13
2023-05-19T06:03:26.302Z,3.53
2023-05-19T06:05:53.260Z,4.15
2023-05-19T06:08:20.062Z,4.18
2023-05-19T06:10:47.483Z,3.75
2023-05-19T06:13:14.449Z,4.88
2023-05-19T06:15:41.285Z,3.88
2023-05-19T06:18:09.472Z,4.65
2023-05-19T06:20:36.372Z,3.92
2023-05-19T06:23:03.235Z,3.75
2023-05-19T06:25:30.270Z,3.97
2023-05-19T06:27:57.290Z,4.25
2023-05-19T06:30:24.129Z,4.03
2023-05-19T06:32:50.938Z,4.35
2023-05-19T06:35:19.180Z,4.35
2023-05-19T06:37:45.982Z,4.85
2023-05-19T06:40:13.424Z,4.32
2023-05-19T06:42:40.209Z,4.10
2023-05-19T06:45:08.201Z,5.07
2023-05-19T06:47:35.074Z,4.20
2023-05-19T06:50:01.988Z,3.90
2023-05-19T06:52:30.175Z,4.50
2023-05-19T06:54:56.932Z,4.88
2023-05-19T06:57:23.816Z,4.53
2023-05-19T06:59:50.601Z,4.78
2023-05-19T07:02:17.413Z,4.65
2023-05-19T07:04:45.730Z,4.30
2023-05-19T07:07:12.577Z,4.53
2023-05-19T07:09:40.702Z,4.45
2023-05-19T07:12:07.720Z,4.30
2023-05-19T07:14:34.509Z,4.30
2023-05-19T07:17:01.262Z,4.50
2023-05-19T07:19:28.046Z,4.63
2023-05-19T07:21:54.805Z,4.40
2023-05-19T07:24:21.584Z,4.20
2023-05-19T07:26:50.855Z,4.05
2023-05-19T07:29:17.730Z,4.68
2023-05-19T07:31:44.523Z,4.00
2023-05-19T07:34:11.357Z,3.80
2023-05-19T07:36:38.090Z,4.25
2023-05-19T07:39:04.954Z,4.22
2023-05-19T07:41:32.013Z,3.78
2023-05-19T07:44:00.947Z,3.97
2023-05-19T07:46:27.955Z,4.03
2023-05-19T07:48:54.805Z,3.78
2023-05-19T07:51:21.704Z,3.90
2023-05-19T07:53:48.523Z,3.78
2023-05-19T07:56:15.341Z,3.65
2023-05-19T07:58:42.170Z,3.30
2023-05-19T08:01:10.299Z,3.10
2023-05-19T08:03:37.357Z,3.45
2023-05-19T08:06:04.723Z,3.50
2023-05-19T08:08:31.569Z,3.30
2023-05-19T08:11:01.321Z,2.88
2023-05-19T08:13:28.134Z,2.70
2023-05-19T08:15:55.051Z,3.22
2023-05-19T08:18:23.201Z,2.63
2023-05-19T08:20:49.972Z,2.47
2023-05-19T08:23:16.746Z,2.35
2023-05-19T08:25:43.634Z,2.65
2023-05-19T08:28:10.619Z,2.60
2023-05-19T08:30:37.601Z,2.65
2023-05-19T08:33:04.595Z,3.10
2023-05-19T08:35:32.879Z,2.28
2023-05-19T08:38:00.270Z,2.67
2023-05-19T08:40:28.577Z,2.65
2023-05-19T08:42:55.483Z,2.45
2023-05-19T08:45:22.370Z,2.90
2023-05-19T08:47:50.986Z,2.67
2023-05-19T08:50:23.118Z,2.55
2023-05-19T08:52:55.558Z,2.95
2023-05-19T08:55:32.062Z,2.40
2023-05-19T08:57:59.529Z,2.35
2023-05-19T09:00:26.374Z,3.10
2023-05-19T09:03:00.305Z,2.42
2023-05-19T09:05:38.997Z,2.53
2023-05-19T09:08:07.465Z,2.92
2023-05-19T09:10:34.216Z,2.63
2023-05-19T09:13:01.121Z,2.80
2023-05-19T09:15:28.388Z,2.65
2023-05-19T09:18:06.048Z,2.40
2023-05-19T09:20:32.956Z,3.17
2023-05-19T09:23:00.132Z,3.08
2023-05-19T09:25:28.227Z,3.08
2023-05-19T09:27:55.151Z,2.58
2023-05-19T09:30:22.220Z,3.10
2023-05-19T09:32:49.052Z,2.80
2023-05-19T09:35:15.868Z,2.90
2023-05-19T09:37:43.533Z,3.45
2023-05-19T09:40:12.429Z,3.17
2023-05-19T09:42:41.732Z,2.83
2023-05-19T09:45:09.496Z,3.28
2023-05-19T09:47:36.775Z,3.22
2023-05-19T09:50:05.203Z,2.78
2023-05-19T09:52:32.185Z,3.00
2023-05-19T09:54:59.155Z,2.78
2023-05-19T09:57:26.846Z,2.65
2023-05-19T09:59:56.100Z,3.20
2023-05-19T10:02:24.272Z,2.83
2023-05-19T10:04:52.147Z,2.65
2023-05-19T10:07:20.415Z,2.72
2023-05-19T10:09:50.128Z,2.83
2023-05-19T10:12:17.984Z,3.03
2023-05-19T10:14:45.322Z,2.60
2023-05-19T10:17:14.280Z,2.75
2023-05-19T10:19:43.743Z,3.03
2023-05-19T10:22:10.547Z,2.90
2023-05-19T10:24:37.378Z,3.08
2023-05-19T10:27:10.033Z,2.85
2023-05-19T10:29:40.903Z,2.58
2023-05-19T10:32:13.985Z,3.17
2023-05-19T10:35:19.969Z,3.03
2023-05-19T10:37:55.195Z,2.72
2023-05-19T10:40:27.525Z,2.65
2023-05-19T10:43:05.349Z,2.83
2023-05-19T10:45:40.458Z,3.30
2023-05-19T10:48:11.196Z,2.78
2023-05-19T10:50:39.565Z,3.15
2023-05-19T10:53:14.647Z,3.00
2023-05-19T10:55:51.637Z,2.90
2023-05-19T10:58:39.907Z,3.17
2023-05-19T11:01:13.415Z,3.00
2023-05-19T11:03:50.779Z,2.88
2023-05-19T11:06:20.302Z,3.03
2023-05-19T11:08:47.150Z,2.90
2023-05-19T11:11:15.133Z,3.15
2023-05-19T11:13:48.154Z,3.40
2023-05-19T11:16:18.085Z,2.80
2023-05-19T11:18:48.912Z,3.40
2023-05-19T11:21:15.804Z,2.88
2023-05-19T11:23:44.073Z,3.28
2023-05-19T11:26:12.504Z,3.45
2023-05-19T11:28:40.651Z,3.03
2023-05-19T11:31:08.764Z,3.28
2023-05-19T11:33:35.978Z,3.17
2023-05-19T11:36:04.244Z,3.10
2023-05-19T11:38:32.238Z,3.40
2023-05-19T11:41:00.560Z,2.95
2023-05-19T11:43:27.529Z,2.60
2023-05-19T11:45:54.902Z,2.65
2023-05-19T11:48:22.390Z,2.90
2023-05-19T11:50:49.613Z,3.70
2023-05-19T11:53:16.615Z,3.40
2023-05-19T11:55:45.251Z,3.28
2023-05-19T11:58:14.348Z,3.30
2023-05-19T12:00:43.035Z,3.50
2023-05-19T12:03:10.362Z,3.00
2023-05-19T12:05:42.870Z,2.33
2023-05-19T12:08:10.925Z,3.08
2023-05-19T12:10:39.026Z,2.88
2023-05-19T12:13:06.367Z,2.90
2023-05-19T12:15:34.852Z,2.90
2023-05-19T12:18:02.828Z,2.90
2023-05-19T12:20:30.572Z,2.65
2023-05-19T12:22:57.921Z,2.90
2023-05-19T12:25:25.306Z,2.90
2023-05-19T12:27:52.096Z,2.53
2023-05-19T12:30:24.536Z,2.80
2023-05-19T12:32:53.957Z,2.70
2023-05-19T12:35:20.926Z,2.88
2023-05-19T12:37:47.720Z,2.60
2023-05-19T12:40:16.411Z,2.75
2023-05-19T12:42:44.727Z,3.08
2023-05-19T12:45:11.586Z,3.28
2023-05-19T12:47:38.427Z,2.90
2023-05-19T12:50:08.113Z,2.45
2023-05-19T12:52:42.852Z,3.03
2023-05-19T12:55:10.212Z,2.90
2023-05-19T12:57:38.330Z,2.90
2023-05-19T13:00:09.092Z,2.50
2023-05-19T13:02:54.046Z,2.80
2023-05-19T13:05:22.374Z,2.45
2023-05-19T13:07:57.265Z,2.92
2023-05-19T13:10:27.674Z,2.40
2023-05-19T13:12:55.076Z,3.25
2023-05-19T13:15:23.783Z,2.92
2023-05-19T13:17:50.856Z,2.63
2023-05-19T13:20:17.911Z,3.00
2023-05-19T13:22:46.724Z,3.45
2023-05-19T13:25:13.871Z,2.92
2023-05-19T13:27:40.758Z,2.58
2023-05-19T13:30:08.513Z,2.47
2023-05-19T13:32:35.331Z,2.42
2023-05-19T13:35:02.234Z,2.60
2023-05-19T13:37:29.441Z,2.50
2023-05-19T13:39:57.678Z,2.40
2023-05-19T13:42:24.473Z,2.53
2023-05-19T13:44:54.626Z,2.20
2023-05-19T13:47:21.779Z,2.92
2023-05-19T13:49:48.573Z,2.20
2023-05-19T13:52:15.406Z,2.50
2023-05-19T13:54:42.155Z,3.10
2023-05-19T13:57:10.223Z,2.55
2023-05-19T13:59:45.716Z,2.53
2023-05-19T14:02:20.114Z,2.58
2023-05-19T14:04:46.895Z,2.38
2023-05-19T14:07:13.709Z,2.63
2023-05-19T14:09:40.549Z,2.63
2023-05-19T14:12:07.625Z,2.60
2023-05-19T14:14:35.676Z,3.13
2023-05-19T14:17:02.610Z,2.83
2023-05-19T14:19:29.427Z,2.53
2023-05-19T14:21:56.316Z,2.50
2023-05-19T14:24:23.114Z,2.58
2023-05-19T14:26:49.887Z,2.42
2023-05-19T14:29:16.649Z,2.92
2023-05-19T14:31:44.799Z,2.70
2023-05-19T14:34:11.586Z,2.53
2023-05-19T14:36:38.349Z,2.20
2023-05-19T14:39:05.089Z,2.80
2023-05-19T14:41:31.818Z,2.47
2023-05-19T14:43:58.582Z,2.50
2023-05-19T14:46:25.460Z,2.35
2023-05-19T14:48:53.572Z,2.47
2023-05-19T14:51:20.499Z,2.33
2023-05-19T14:53:47.357Z,2.33
2023-05-19T14:56:14.176Z,2.72
2023-05-19T14:58:40.999Z,2.33
2023-05-19T15:01:07.799Z,2.60
2023-05-19T15:03:34.624Z,2.03
2023-05-19T15:06:02.732Z,2.53
2023-05-19T15:08:29.543Z,2.30
2023-05-19T15:10:56.301Z,2.42
2023-05-19T15:13:23.091Z,2.45
2023-05-19T15:15:58.913Z,2.60
2023-05-19T15:18:31.731Z,2.80
2023-05-19T15:20:58.505Z,2.63
2023-05-19T15:23:26.626Z,2.38
2023-05-19T15:25:53.462Z,2.30
2023-05-19T15:28:20.305Z,2.22
2023-05-19T15:30:47.174Z,1.95
2023-05-19T15:33:14.014Z,2.30
2023-05-19T15:35:40.814Z,2.08
2023-05-19T15:38:07.581Z,2.80
2023-05-19T15:40:35.759Z,2.30
2023-05-19T15:43:02.550Z,2.30
2023-05-19T15:45:29.491Z,2.33
2023-05-19T15:47:56.293Z,2.03
2023-05-19T15:50:23.106Z,1.98
2023-05-19T15:52:49.850Z,2.53
2023-05-19T15:55:16.610Z,2.63
2023-05-19T15:57:44.726Z,2.25
2023-05-19T16:00:12.796Z,2.25
2023-05-19T16:02:42.593Z,2.20
2023-05-19T16:05:09.917Z,2.00
2023-05-19T16:07:36.660Z,2.60
2023-05-19T16:10:03.908Z,1.92
2023-05-19T16:12:30.653Z,2.20
2023-05-19T16:14:58.811Z,2.35
2023-05-19T16:17:25.620Z,1.92
2023-05-19T16:19:52.401Z,2.20
2023-05-19T16:22:19.182Z,2.10
2023-05-19T16:24:45.933Z,2.40
2023-05-19T16:27:12.699Z,2.28
2023-05-19T16:29:39.427Z,2.20
2023-05-19T16:32:07.898Z,2.47
2023-05-19T16:34:34.734Z,1.90
2023-05-19T16:37:06.336Z,2.55
2023-05-19T16:39:35.175Z,2.45
2023-05-19T16:42:01.962Z,2.30
2023-05-19T16:44:28.693Z,2.75
2023-05-19T16:46:55.468Z,1.98
2023-05-19T16:49:23.604Z,2.50
2023-05-19T16:51:50.353Z,2.42
2023-05-19T16:54:17.235Z,2.53
2023-05-19T16:56:44.046Z,2.10
2023-05-19T16:59:10.803Z,2.45
2023-05-19T17:01:37.597Z,2.65
2023-05-19T17:04:04.564Z,1.90
2023-05-19T17:06:32.668Z,2.10
2023-05-19T17:08:59.396Z,2.00
2023-05-19T17:11:26.356Z,2.42
2023-05-19T17:13:53.145Z,2.05
2023-05-19T17:16:19.910Z,2.53
2023-05-19T17:18:46.790Z,2.53
2023-05-19T17:21:13.570Z,3.13
2023-05-19T17:23:41.665Z,2.70
2023-05-19T17:26:08.484Z,2.78
2023-05-19T17:28:35.239Z,2.42
2023-05-19T17:31:08.571Z,2.17
2023-05-19T17:33:35.413Z,3.10
2023-05-19T17:36:02.771Z,2.83
2023-05-19T17:38:29.592Z,3.58
2023-05-19T17:40:59.125Z,2.50
2023-05-19T17:43:26.071Z,2.60
2023-05-19T17:45:52.952Z,2.28
2023-05-19T17:48:19.857Z,2.38
2023-05-19T17:50:46.890Z,2.20
2023-05-19T17:53:14.237Z,2.38
2023-05-19T17:55:41.511Z,2.53
2023-05-19T17:58:13.313Z,2.67
2023-05-19T18:00:40.551Z,2.40
2023-05-19T18:03:08.167Z,1.95
2023-05-19T18:05:35.603Z,2.05
2023-05-19T18:08:04.335Z,2.50
2023-05-19T18:10:35.962Z,2.72
2023-05-19T18:13:03.420Z,2.60
2023-05-19T18:15:31.666Z,2.47
2023-05-19T18:17:58.616Z,2.50
2023-05-19T18:20:25.594Z,2.45
2023-05-19T18:22:52.559Z,2.70
2023-05-19T18:25:19.556Z,2.20
2023-05-19T18:27:49.186Z,2.50
2023-05-19T18:30:16.502Z,2.30
2023-05-19T18:32:44.682Z,2.20
2023-05-19T18:35:11.535Z,2.40
2023-05-19T18:37:38.351Z,2.42
2023-05-19T18:40:06.745Z,2.45
2023-05-19T18:42:33.701Z,2.35
2023-05-19T18:45:00.441Z,2.55
2023-05-19T18:47:29.583Z,2.90
2023-05-19T18:50:02.910Z,2.90
2023-05-19T18:52:33.126Z,2.67
2023-05-19T18:55:09.008Z,4.72
2023-05-19T18:57:37.037Z,4.80
2023-05-19T19:00:06.831Z,5.40
2023-05-19T19:02:34.374Z,5.53
2023-05-19T19:05:05.675Z,4.88
2023-05-19T19:07:33.984Z,4.18
2023-05-19T19:10:01.271Z,2.78
2023-05-19T19:12:28.619Z,2.72
2023-05-19T19:14:57.317Z,2.33
2023-05-19T19:17:26.346Z,2.90
2023-05-19T19:19:58.072Z,2.35
2023-05-19T19:22:33.359Z,2.45
2023-05-19T19:25:01.121Z,3.03
2023-05-19T19:27:32.289Z,2.90
2023-05-19T19:30:06.328Z,2.85
2023-05-19T19:32:38.991Z,2.47
2023-05-19T19:35:08.444Z,2.60
2023-05-19T19:37:37.253Z,2.15
2023-05-19T19:40:05.512Z,2.88
2023-05-19T19:42:37.228Z,2.53
2023-05-19T19:45:10.893Z,2.47
2023-05-19T19:47:40.878Z,2.80
2023-05-19T19:50:10.055Z,2.92
2023-05-19T19:52:38.832Z,2.97
2023-05-19T19:55:07.360Z,2.88
2023-05-19T19:57:36.425Z,2.65
2023-05-19T20:00:04.038Z,2.80
2023-05-19T20:02:33.527Z,3.05
2023-05-19T20:05:02.129Z,2.85
2023-05-19T20:07:31.539Z,3.22
2023-05-19T20:10:01.714Z,2.95
2023-05-19T20:12:29.773Z,3.10
2023-05-19T20:14:57.025Z,3.08
2023-05-19T20:17:24.876Z,2.63
2023-05-19T20:19:54.424Z,2.75
2023-05-19T20:22:22.093Z,2.40
2023-05-19T20:24:49.826Z,2.53
2023-05-19T20:27:18.638Z,2.53
2023-05-19T20:29:48.396Z,2.42
2023-05-19T20:32:19.194Z,2.35
2023-05-19T20:34:47.902Z,9.00
2023-05-19T20:37:15.541Z,2.85
2023-05-19T20:39:44.389Z,2.47
2023-05-19T20:42:11.786Z,2.30
2023-05-19T20:44:44.023Z,2.03
2023-05-19T20:47:13.379Z,2.55
2023-05-19T20:49:42.158Z,2.58
2023-05-19T20:52:09.964Z,2.90
2023-05-19T20:54:50.310Z,2.25
2023-05-19T20:57:22.896Z,2.33
2023-05-19T20:59:52.632Z,2.50
2023-05-19T21:02:21.169Z,2.20
2023-05-19T21:04:49.292Z,2.72
2023-05-19T21:07:17.182Z,2.60
2023-05-19T21:09:47.530Z,3.00
2023-05-19T21:12:15.053Z,2.78
2023-05-19T21:14:42.757Z,2.55
2023-05-19T21:17:14.062Z,2.40
2023-05-19T21:19:41.696Z,2.63
2023-05-19T21:22:11.259Z,2.70
2023-05-19T21:24:38.943Z,2.42
2023-05-19T21:27:05.990Z,2.38
2023-05-19T21:29:32.918Z,2.40
2023-05-19T21:31:59.868Z,2.75
2023-05-19T21:34:28.080Z,2.42
2023-05-19T21:36:55.058Z,2.67
2023-05-19T21:39:21.850Z,2.70
2023-05-19T21:41:48.694Z,2.00
2023-05-19T21:44:15.606Z,2.30
2023-05-19T21:46:42.425Z,2.35
2023-05-19T21:49:09.379Z,2.60
2023-05-19T21:51:37.567Z,2.35
2023-05-19T21:54:04.487Z,2.30
2023-05-19T21:56:31.325Z,2.20
2023-05-19T21:58:58.127Z,1.98
2023-05-19T22:01:24.992Z,2.17
2023-05-19T22:03:52.853Z,2.13
2023-05-19T22:06:19.721Z,2.05
2023-05-19T22:08:47.921Z,2.15
2023-05-19T22:11:14.997Z,2.20
2023-05-19T22:13:41.869Z,2.40
2023-05-19T22:16:08.873Z,2.50
2023-05-19T22:18:35.795Z,2.13
2023-05-19T22:21:02.696Z,2.60
2023-05-19T22:23:29.714Z,2.45
2023-05-19T22:25:57.923Z,2.30
2023-05-19T22:28:24.770Z,2.00
2023-05-19T22:30:51.553Z,2.40
2023-05-19T22:33:18.446Z,2.50
2023-05-19T22:35:45.266Z,2.35
2023-05-19T22:38:12.086Z,2.28
2023-05-19T22:40:39.234Z,2.30
2023-05-19T22:43:07.537Z,2.47
2023-05-19T22:45:34.960Z,2.08
2023-05-19T22:48:02.157Z,2.17
2023-05-19T22:50:29.062Z,2.20
2023-05-19T22:52:56.027Z,2.60
2023-05-19T22:55:22.836Z,2.42
2023-05-19T22:57:49.726Z,2.33
2023-05-19T23:00:18.567Z,2.30
2023-05-19T23:02:45.536Z,2.67
2023-05-19T23:05:12.485Z,2.28
2023-05-19T23:07:39.359Z,2.30
2023-05-19T23:10:06.872Z,2.50
2023-05-19T23:12:33.661Z,2.75
2023-05-19T23:15:04.961Z,2.50
2023-05-19T23:17:33.293Z,2.58
2023-05-19T23:20:00.133Z,2.50
2023-05-19T23:22:27.475Z,2.40
2023-05-19T23:24:55.508Z,2.80
2023-05-19T23:27:25.001Z,2.75
2023-05-19T23:29:51.997Z,2.65
2023-05-19T23:32:18.845Z,2.60
2023-05-19T23:34:47.254Z,2.60
2023-05-19T23:37:14.033Z,2.65
2023-05-19T23:39:40.781Z,2.67
2023-05-19T23:42:07.522Z,2.92
2023-05-19T23:44:34.307Z,2.92
2023-05-19T23:47:01.154Z,2.95
2023-05-19T23:49:27.946Z,3.15
2023-05-19T23:51:56.039Z,2.47
2023-05-19T23:54:22.848Z,3.25
2023-05-19T23:56:49.613Z,2.58
2023-05-19T23:59:16.357Z,2.55
